createdAt,value
2023-02-23T00:00:30.131Z,-23588.29
2023-02-23T00:03:01.438Z,-23587.37
2023-02-23T00:08:15.208Z,-23585.73
2023-02-23T00:10:44.748Z,-23583.29
2023-02-23T00:13:13.710Z,-23582.08
2023-02-23T00:15:45.325Z,-23581.64
2023-02-23T00:18:14.849Z,-23581.04
2023-02-23T00:20:48.077Z,-23580.44
2023-02-23T00:23:16.576Z,-23579.36
2023-02-23T00:25:45.962Z,-23578.47
2023-02-23T00:28:15.227Z,-23577.33
2023-02-23T00:30:46.950Z,-23576.63
2023-02-23T00:33:15.878Z,-23575.91
2023-02-23T00:35:44.478Z,-23575.46
2023-02-23T00:38:12.600Z,-23574.41
2023-02-23T00:40:41.298Z,-23573.12
2023-02-23T00:43:09.491Z,-23572.54
2023-02-23T00:45:38.601Z,-23572.10
2023-02-23T00:48:10.967Z,-23571.44
2023-02-23T00:50:41.701Z,-23570.71
2023-02-23T00:53:11.571Z,-23570.13
2023-02-23T00:55:41.520Z,-23569.76
2023-02-23T00:58:14.215Z,-23569.18
2023-02-23T01:00:43.669Z,-23568.27
2023-02-23T01:03:11.878Z,-23566.59
2023-02-23T01:05:40.043Z,-23565.00
2023-02-23T01:08:10.371Z,-23564.08
2023-02-23T01:10:44.612Z,-23563.79
2023-02-23T01:13:13.360Z,-23563.61
2023-02-23T01:15:43.514Z,-23563.35
2023-02-23T01:18:17.622Z,-23562.69
2023-02-23T01:20:45.970Z,-23561.54
2023-02-23T01:23:14.591Z,-23559.99
2023-02-23T01:25:44.087Z,-23558.66
2023-02-23T01:28:12.472Z,-23557.68
2023-02-23T01:30:40.814Z,-23557.48
2023-02-23T01:33:09.559Z,-23557.07
2023-02-23T01:35:38.516Z,-23556.38
2023-02-23T01:38:07.103Z,-23555.96
2023-02-23T01:40:37.584Z,-23555.33
2023-02-23T01:43:21.172Z,-23554.95
2023-02-23T01:45:49.326Z,-23554.25
2023-02-23T01:48:21.410Z,-23553.50
2023-02-23T01:51:13.706Z,-23552.38
2023-02-23T01:54:07.481Z,-23551.12
2023-02-23T01:56:44.661Z,-23549.94
2023-02-23T01:59:13.305Z,-23548.93
2023-02-23T02:01:42.255Z,-23548.52
2023-02-23T02:04:16.953Z,-23547.88
2023-02-23T02:06:46.033Z,-23547.06
2023-02-23T02:09:17.691Z,-23546.07
2023-02-23T02:11:54.179Z,-23545.28
2023-02-23T02:14:31.035Z,-23544.46
2023-02-23T02:17:21.026Z,-23543.85
2023-02-23T02:20:01.407Z,-23543.38
2023-02-23T02:22:54.292Z,-23542.58
2023-02-23T02:25:25.245Z,-23540.93
2023-02-23T02:28:09.089Z,-23539.51
2023-02-23T02:31:02.466Z,-23538.27
2023-02-23T02:33:53.322Z,-23537.22
2023-02-23T02:36:58.994Z,-23536.24
2023-02-23T02:40:15.854Z,-23535.51
2023-02-23T02:43:11.467Z,-23534.63
2023-02-23T02:46:08.972Z,-23534.02
2023-02-23T02:48:57.901Z,-23533.10
2023-02-23T02:51:28.812Z,-23532.02
2023-02-23T02:54:15.800Z,-23531.07
2023-02-23T02:56:44.648Z,-23530.31
2023-02-23T02:59:33.082Z,-23529.83
2023-02-23T03:02:21.362Z,-23529.39
2023-02-23T03:05:08.022Z,-23528.79
2023-02-23T03:07:59.801Z,-23528.18
2023-02-23T03:10:51.468Z,-23527.20
2023-02-23T03:13:49.702Z,-23526.63
2023-02-23T03:16:36.488Z,-23526.47
2023-02-23T03:19:52.880Z,-23526.15
2023-02-23T03:23:03.435Z,-23525.42
2023-02-23T03:26:17.407Z,-23524.12
2023-02-23T03:29:09.550Z,-23523.71
2023-02-23T03:32:30.471Z,-23523.17
2023-02-23T03:35:25.172Z,-23522.21
2023-02-23T03:38:20.116Z,-23521.46
2023-02-23T03:41:06.896Z,-23520.76
2023-02-23T03:43:57.522Z,-23520.38
2023-02-23T03:46:44.452Z,-23519.74
2023-02-23T03:49:31.329Z,-23519.04
2023-02-23T03:52:22.604Z,-23518.28
2023-02-23T03:55:21.831Z,-23518.18
2023-02-23T03:58:10.812Z,-23519.13
2023-02-23T04:01:01.760Z,-23518.66
2023-02-23T04:03:50.211Z,-23517.84
2023-02-23T04:06:37.293Z,-23517.07
2023-02-23T04:09:25.130Z,-23516.50
2023-02-23T04:12:31.658Z,-23516.34
2023-02-23T04:15:20.718Z,-23515.43
2023-02-23T04:17:50.805Z,-23514.50
2023-02-23T04:20:19.775Z,-23513.80
2023-02-23T04:22:47.991Z,-23513.27
2023-02-23T04:25:17.463Z,-23512.69
2023-02-23T04:27:45.621Z,-23511.93
2023-02-23T04:30:13.905Z,-23511.39
2023-02-23T04:32:44.716Z,-23510.97
2023-02-23T04:35:13.689Z,-23510.79
2023-02-23T04:37:41.773Z,-23510.91
2023-02-23T04:40:10.722Z,-23510.85
2023-02-23T04:42:39.628Z,-23510.09
2023-02-23T04:45:08.647Z,-23509.48
2023-02-23T04:47:36.950Z,-23508.60
2023-02-23T04:50:05.867Z,-23507.83
2023-02-23T04:52:35.238Z,-23507.74
2023-02-23T04:55:05.544Z,-23508.06
2023-02-23T04:57:34.715Z,-23507.83
2023-02-23T05:00:05.344Z,-23507.17
2023-02-23T05:02:34.058Z,-23507.01
2023-02-23T05:05:03.656Z,-23506.75
2023-02-23T05:07:32.107Z,-23506.60
2023-02-23T05:10:00.231Z,-23506.37
2023-02-23T05:12:30.911Z,-23506.53
2023-02-23T05:14:59.402Z,-23506.72
2023-02-23T05:17:27.632Z,-23506.60
2023-02-23T05:19:56.793Z,-23506.12
2023-02-23T05:22:25.182Z,-23506.40
2023-02-23T05:24:55.301Z,-23506.88
2023-02-23T05:27:25.233Z,-23507.17
2023-02-23T05:29:53.465Z,-23507.17
2023-02-23T05:32:22.153Z,-23507.39
2023-02-23T05:34:50.685Z,-23507.83
2023-02-23T05:37:20.090Z,-23507.93
2023-02-23T05:39:48.224Z,-23508.47
2023-02-23T05:42:20.378Z,-23508.98
2023-02-23T05:44:48.727Z,-23508.91
2023-02-23T05:47:17.086Z,-23509.04
2023-02-23T05:49:46.428Z,-23509.46
2023-02-23T05:52:14.628Z,-23510.09
2023-02-23T05:54:43.517Z,-23510.21
2023-02-23T05:57:11.769Z,-23510.59
2023-02-23T05:59:40.490Z,-23510.95
2023-02-23T06:02:08.987Z,-23511.27
2023-02-23T06:04:37.431Z,-23511.96
2023-02-23T06:07:05.708Z,-23512.34
2023-02-23T06:09:34.249Z,-23513.33
2023-02-23T06:12:02.625Z,-23514.60
2023-02-23T06:14:31.043Z,-23515.83
2023-02-23T06:17:00.491Z,-23516.95
2023-02-23T06:19:29.484Z,-23517.32
2023-02-23T06:21:59.875Z,-23518.18
2023-02-23T06:24:28.485Z,-23519.01
2023-02-23T06:26:57.101Z,-23519.84
2023-02-23T06:29:25.440Z,-23520.50
2023-02-23T06:31:53.676Z,-23521.14
2023-02-23T06:34:21.939Z,-23521.96
2023-02-23T06:36:50.462Z,-23523.39
2023-02-23T06:39:21.566Z,-23524.79
2023-02-23T06:41:49.708Z,-23525.74
2023-02-23T06:44:18.123Z,-23526.50
2023-02-23T06:46:46.496Z,-23527.10
2023-02-23T06:49:16.555Z,-23528.12
2023-02-23T06:51:46.507Z,-23528.97
2023-02-23T06:54:16.274Z,-23529.13
2023-02-23T06:56:46.712Z,-23529.23
2023-02-23T06:59:15.704Z,-23530.02
2023-02-23T07:01:47.420Z,-23531.32
2023-02-23T07:04:16.862Z,-23533.07
2023-02-23T07:06:45.757Z,-23535.26
2023-02-23T07:09:15.655Z,-23536.62
2023-02-23T07:11:44.982Z,-23538.40
2023-02-23T07:14:21.517Z,-23539.60
2023-02-23T07:16:53.473Z,-23540.65
2023-02-23T07:19:24.736Z,-23542.14
2023-02-23T07:21:54.795Z,-23543.29
2023-02-23T07:24:24.546Z,-23543.92
2023-02-23T07:26:52.730Z,-23544.96
2023-02-23T07:29:21.638Z,-23546.43
2023-02-23T07:31:50.522Z,-23548.01
2023-02-23T07:34:18.983Z,-23549.09
2023-02-23T07:36:47.358Z,-23549.63
2023-02-23T07:39:16.055Z,-23550.45
2023-02-23T07:41:44.491Z,-23551.53
2023-02-23T07:44:22.245Z,-23553.21
2023-02-23T07:46:53.059Z,-23554.95
2023-02-23T07:49:21.340Z,-23556.54
2023-02-23T07:51:49.688Z,-23557.49
2023-02-23T07:54:19.885Z,-23558.63
2023-02-23T07:56:52.689Z,-23559.58
2023-02-23T07:59:21.821Z,-23560.28
2023-02-23T08:01:51.152Z,-23561.32
2023-02-23T08:04:19.749Z,-23562.81
2023-02-23T08:06:48.304Z,-23563.38
2023-02-23T08:09:16.534Z,-23563.79
2023-02-23T08:11:45.402Z,-23564.75
2023-02-23T08:14:14.642Z,-23566.49
2023-02-23T08:16:43.050Z,-23568.26
2023-02-23T08:19:12.649Z,-23569.94
2023-02-23T08:21:43.471Z,-23571.65
2023-02-23T08:24:12.043Z,-23573.21
2023-02-23T08:26:42.054Z,-23574.92
2023-02-23T08:29:10.670Z,-23576.44
2023-02-23T08:31:41.176Z,-23578.15
2023-02-23T08:34:10.406Z,-23579.93
2023-02-23T08:36:43.643Z,-23580.94
2023-02-23T08:39:13.951Z,-23581.96
2023-02-23T08:41:43.411Z,-23583.16
2023-02-23T08:44:11.728Z,-23584.21
2023-02-23T08:46:41.546Z,-23584.65
2023-02-23T08:49:11.712Z,-23585.16
2023-02-23T08:51:41.614Z,-23586.58
2023-02-23T08:54:14.436Z,-23587.66
2023-02-23T08:56:43.232Z,-23589.24
2023-02-23T08:59:12.717Z,-23590.86
2023-02-23T09:01:42.541Z,-23592.38
2023-02-23T09:04:11.664Z,-23594.19
2023-02-23T09:06:41.114Z,-23595.77
2023-02-23T09:09:09.428Z,-23597.35
2023-02-23T09:11:37.784Z,-23598.90
2023-02-23T09:14:07.194Z,-23600.46
2023-02-23T09:16:36.271Z,-23601.85
2023-02-23T09:19:05.467Z,-23603.09
2023-02-23T09:21:34.692Z,-23604.04
2023-02-23T09:24:03.073Z,-23605.27
2023-02-23T09:26:32.629Z,-23607.23
2023-02-23T09:29:01.050Z,-23608.75
2023-02-23T09:31:30.981Z,-23610.18
2023-02-23T09:34:02.567Z,-23611.79
2023-02-23T09:36:34.803Z,-23614.01
2023-02-23T09:39:03.434Z,-23616.67
2023-02-23T09:41:50.219Z,-23618.98
2023-02-23T09:44:56.349Z,-23619.93
2023-02-23T09:47:31.081Z,-23620.59
2023-02-23T09:50:00.368Z,-23621.70
2023-02-23T09:52:42.490Z,-23623.44
2023-02-23T09:55:12.302Z,-23625.69
2023-02-23T09:57:43.246Z,-23627.81
2023-02-23T10:00:20.753Z,-23628.92
2023-02-23T10:02:57.790Z,-23629.14
2023-02-23T10:05:28.448Z,-23629.58
2023-02-23T10:08:00.958Z,-23631.22
2023-02-23T10:10:35.613Z,-23632.90
2023-02-23T10:13:14.511Z,-23634.11
2023-02-23T10:16:04.155Z,-23635.88
2023-02-23T10:18:54.175Z,-23637.99
2023-02-23T10:21:30.438Z,-23638.95
2023-02-23T10:24:06.856Z,-23639.86
2023-02-23T10:26:47.367Z,-23640.21
2023-02-23T10:29:43.290Z,-23640.66
2023-02-23T10:32:40.939Z,-23640.91
2023-02-23T10:35:13.761Z,-23641.06
2023-02-23T10:37:41.977Z,-23642.01
2023-02-23T10:40:18.054Z,-23643.15
2023-02-23T10:42:50.120Z,-23644.23
2023-02-23T10:45:23.385Z,-23645.62
2023-02-23T10:47:58.893Z,-23646.63
2023-02-23T10:50:32.806Z,-23647.58
2023-02-23T10:53:24.487Z,-23648.97
2023-02-23T10:56:11.038Z,-23651.28
2023-02-23T10:58:51.521Z,-23652.93
2023-02-23T11:02:01.993Z,-23653.94
2023-02-23T11:04:53.241Z,-23655.26
2023-02-23T11:07:29.778Z,-23658.74
2023-02-23T11:10:27.586Z,-23663.11
2023-02-23T11:12:56.989Z,-23667.28
2023-02-23T11:15:35.329Z,-23670.15
2023-02-23T11:18:08.021Z,-23672.27
2023-02-23T11:20:39.922Z,-23673.88
2023-02-23T11:23:14.738Z,-23675.75
2023-02-23T11:25:45.258Z,-23677.52
2023-02-23T11:28:21.747Z,-23677.80
2023-02-23T11:30:51.711Z,-23676.63
2023-02-23T11:33:25.643Z,-23675.56
2023-02-23T11:36:00.759Z,-23675.34
2023-02-23T11:38:30.610Z,-23674.86
2023-02-23T11:41:07.501Z,-23675.31
2023-02-23T11:43:37.665Z,-23676.03
2023-02-23T11:46:06.318Z,-23676.92
2023-02-23T11:48:36.454Z,-23676.98
2023-02-23T11:51:05.602Z,-23677.73
2023-02-23T11:53:40.526Z,-23678.34
2023-02-23T11:56:12.763Z,-23679.22
2023-02-23T11:58:46.896Z,-23680.33
2023-02-23T12:01:17.277Z,-23681.62
2023-02-23T12:03:48.265Z,-23682.98
2023-02-23T12:06:36.348Z,-23683.71
2023-02-23T12:09:18.650Z,-23684.37
2023-02-23T12:11:50.644Z,-23685.39
2023-02-23T12:14:49.954Z,-23685.98
2023-02-23T12:17:29.618Z,-23686.58
2023-02-23T12:20:04.695Z,-23686.96
2023-02-23T12:22:35.889Z,-23687.47
2023-02-23T12:25:18.408Z,-23688.00
2023-02-23T12:28:19.671Z,-23689.17
2023-02-23T12:30:59.177Z,-23689.49
2023-02-23T12:33:44.540Z,-23690.31
2023-02-23T12:36:38.577Z,-23691.92
2023-02-23T12:39:36.879Z,-23693.37
2023-02-23T12:42:11.448Z,-23695.24
2023-02-23T12:44:52.807Z,-23696.82
2023-02-23T12:47:28.283Z,-23698.30
2023-02-23T12:50:13.564Z,-23699.25
2023-02-23T12:52:54.567Z,-23700.70
2023-02-23T12:55:30.731Z,-23701.65
2023-02-23T12:58:02.678Z,-23703.17
2023-02-23T13:00:40.549Z,-23704.59
2023-02-23T13:03:30.415Z,-23705.88
2023-02-23T13:06:17.653Z,-23706.89
2023-02-23T13:08:53.779Z,-23706.92
2023-02-23T13:11:44.044Z,-23707.55
2023-02-23T13:14:25.911Z,-23708.81
2023-02-23T13:17:14.142Z,-23709.98
2023-02-23T13:19:53.794Z,-23709.83
2023-02-23T13:22:41.030Z,-23709.29
2023-02-23T13:25:37.077Z,-23708.94
2023-02-23T13:28:05.370Z,-23709.19
2023-02-23T13:30:38.151Z,-23710.30
2023-02-23T13:33:16.070Z,-23711.66
2023-02-23T13:35:44.369Z,-23712.98
2023-02-23T13:38:36.837Z,-23714.15
2023-02-23T13:41:43.775Z,-23715.29
2023-02-23T13:44:22.744Z,-23716.20
2023-02-23T13:47:21.222Z,-23716.68
2023-02-23T13:49:59.795Z,-23715.98
2023-02-23T13:52:39.924Z,-23716.20
2023-02-23T13:55:26.750Z,-23717.09
2023-02-23T13:57:59.910Z,-23718.25
2023-02-23T14:00:28.850Z,-23719.45
2023-02-23T14:02:57.227Z,-23720.15
2023-02-23T14:05:27.797Z,-23720.90
2023-02-23T14:08:05.431Z,-23721.76
2023-02-23T14:10:40.329Z,-23722.29
2023-02-23T14:13:14.939Z,-23722.80
2023-02-23T14:16:07.734Z,-23722.77
2023-02-23T14:18:36.654Z,-23723.30
2023-02-23T14:21:37.390Z,-23723.56
2023-02-23T14:24:14.833Z,-23723.71
2023-02-23T14:27:08.510Z,-23723.68
2023-02-23T14:30:02.311Z,-23723.75
2023-02-23T14:32:31.281Z,-23723.65
2023-02-23T14:35:01.312Z,-23723.71
2023-02-23T14:37:35.846Z,-23723.49
2023-02-23T14:40:12.897Z,-23723.27
2023-02-23T14:42:41.371Z,-23723.52
2023-02-23T14:45:37.716Z,-23723.87
2023-02-23T14:48:08.487Z,-23724.12
2023-02-23T14:50:39.343Z,-23724.12
2023-02-23T14:53:14.936Z,-23723.78
2023-02-23T14:55:43.598Z,-23723.68
2023-02-23T14:58:25.057Z,-23723.68
2023-02-23T15:00:53.974Z,-23723.30
2023-02-23T15:03:24.042Z,-23723.05
2023-02-23T15:05:57.072Z,-23722.89
2023-02-23T15:08:27.557Z,-23722.45
2023-02-23T15:11:12.234Z,-23721.82
2023-02-23T15:13:50.428Z,-23720.43
2023-02-23T15:16:24.621Z,-23718.72
2023-02-23T15:18:53.481Z,-23717.08
2023-02-23T15:21:22.977Z,-23715.51
2023-02-23T15:24:12.970Z,-23714.24
2023-02-23T15:26:43.958Z,-23713.43
2023-02-23T15:29:15.102Z,-23712.70
2023-02-23T15:31:52.917Z,-23712.35
2023-02-23T15:34:24.984Z,-23711.82
2023-02-23T15:36:59.916Z,-23710.83
2023-02-23T15:39:54.879Z,-23710.24
2023-02-23T15:42:26.281Z,-23709.38
2023-02-23T15:44:59.344Z,-23708.47
2023-02-23T15:47:35.529Z,-23707.21
2023-02-23T15:50:16.510Z,-23705.75
2023-02-23T15:52:50.331Z,-23704.81
2023-02-23T15:55:25.350Z,-23703.89
2023-02-23T15:58:00.341Z,-23702.85
2023-02-23T16:00:38.164Z,-23701.71
2023-02-23T16:03:07.784Z,-23700.35
2023-02-23T16:05:46.589Z,-23699.13
2023-02-23T16:08:23.179Z,-23698.14
2023-02-23T16:11:01.164Z,-23697.29
2023-02-23T16:13:29.416Z,-23696.54
2023-02-23T16:15:57.585Z,-23695.81
2023-02-23T16:18:41.602Z,-23695.59
2023-02-23T16:21:17.352Z,-23695.02
2023-02-23T16:23:48.069Z,-23694.35
2023-02-23T16:26:19.555Z,-23693.75
2023-02-23T16:28:48.023Z,-23693.75
2023-02-23T16:31:22.725Z,-23693.50
2023-02-23T16:33:57.263Z,-23692.87
2023-02-23T16:36:40.425Z,-23692.36
2023-02-23T16:39:12.206Z,-23692.08
2023-02-23T16:41:40.933Z,-23691.99
2023-02-23T16:44:12.810Z,-23691.61
2023-02-23T16:47:02.641Z,-23691.16
2023-02-23T16:49:34.450Z,-23690.66
2023-02-23T16:52:05.030Z,-23690.00
2023-02-23T16:54:33.443Z,-23689.36
2023-02-23T16:57:11.237Z,-23688.48
2023-02-23T16:59:39.478Z,-23688.29
2023-02-23T17:02:13.955Z,-23687.60
2023-02-23T17:04:48.832Z,-23687.44
2023-02-23T17:07:19.638Z,-23686.93
2023-02-23T17:09:48.915Z,-23686.58
2023-02-23T17:12:21.869Z,-23686.14
2023-02-23T17:14:52.332Z,-23685.67
2023-02-23T17:17:21.861Z,-23685.23
2023-02-23T17:19:50.100Z,-23684.53
2023-02-23T17:22:22.854Z,-23684.15
2023-02-23T17:24:51.106Z,-23683.90
2023-02-23T17:27:19.494Z,-23683.68
2023-02-23T17:29:48.367Z,-23683.43
2023-02-23T17:32:17.465Z,-23682.92
2023-02-23T17:34:45.648Z,-23682.32
2023-02-23T17:37:14.655Z,-23681.66
2023-02-23T17:39:42.883Z,-23681.40
2023-02-23T17:42:11.713Z,-23680.68
2023-02-23T17:44:40.568Z,-23680.04
2023-02-23T17:47:09.147Z,-23679.50
2023-02-23T17:49:37.503Z,-23679.32
2023-02-23T17:52:05.958Z,-23678.78
2023-02-23T17:54:34.264Z,-23678.59
2023-02-23T17:57:03.521Z,-23678.21
2023-02-23T17:59:32.052Z,-23677.61
2023-02-23T18:02:00.825Z,-23677.08
2023-02-23T18:04:29.536Z,-23676.76
2023-02-23T18:06:58.075Z,-23676.41
2023-02-23T18:09:27.415Z,-23675.81
2023-02-23T18:11:58.116Z,-23675.06
2023-02-23T18:14:26.300Z,-23674.58
2023-02-23T18:16:54.918Z,-23673.85
2023-02-23T18:19:24.659Z,-23673.44
2023-02-23T18:21:56.224Z,-23672.90
2023-02-23T18:24:24.995Z,-23672.27
2023-02-23T18:26:54.823Z,-23672.18
2023-02-23T18:29:22.932Z,-23671.64
2023-02-23T18:31:52.591Z,-23671.32
2023-02-23T18:34:21.929Z,-23671.01
2023-02-23T18:36:52.457Z,-23670.50
2023-02-23T18:39:20.769Z,-23670.16
2023-02-23T18:41:50.494Z,-23670.06
2023-02-23T18:44:19.285Z,-23670.00
2023-02-23T18:46:47.669Z,-23669.93
2023-02-23T18:49:17.421Z,-23669.58
2023-02-23T18:51:49.034Z,-23669.52
2023-02-23T18:54:18.783Z,-23669.46
2023-02-23T18:56:47.618Z,-23669.36
2023-02-23T18:59:16.013Z,-23669.08
2023-02-23T19:01:46.772Z,-23669.27
2023-02-23T19:04:15.217Z,-23669.52
2023-02-23T19:06:46.086Z,-23669.52
2023-02-23T19:09:14.700Z,-23669.65
2023-02-23T19:11:44.632Z,-23669.33
2023-02-23T19:14:16.298Z,-23668.92
2023-02-23T19:16:46.945Z,-23668.54
2023-02-23T19:19:16.059Z,-23668.04
2023-02-23T19:21:45.529Z,-23667.94
2023-02-23T19:24:14.640Z,-23668.07
2023-02-23T19:26:42.889Z,-23667.75
2023-02-23T19:29:11.001Z,-23667.40
2023-02-23T19:31:39.692Z,-23667.18
2023-02-23T19:34:10.007Z,-23666.90
2023-02-23T19:36:38.382Z,-23666.52
2023-02-23T19:39:11.158Z,-23666.11
2023-02-23T19:41:40.856Z,-23665.63
2023-02-23T19:44:10.600Z,-23665.19
2023-02-23T19:46:40.171Z,-23664.91
2023-02-23T19:49:08.826Z,-23664.49
2023-02-23T19:51:37.382Z,-23664.15
2023-02-23T19:54:06.787Z,-23664.28
2023-02-23T19:56:37.100Z,-23663.93
2023-02-23T19:59:05.830Z,-23663.74
2023-02-23T20:01:37.519Z,-23663.33
2023-02-23T20:04:08.445Z,-23663.04
2023-02-23T20:06:47.406Z,-23662.76
2023-02-23T20:09:15.780Z,-23662.76
2023-02-23T20:11:49.558Z,-23662.57
2023-02-23T20:14:18.646Z,-23662.09
2023-02-23T20:16:47.229Z,-23661.59
2023-02-23T20:19:17.654Z,-23661.24
2023-02-23T20:21:46.156Z,-23660.73
2023-02-23T20:24:16.394Z,-23660.39
2023-02-23T20:26:44.772Z,-23659.82
2023-02-23T20:29:18.757Z,-23659.31
2023-02-23T20:31:52.072Z,-23658.84
2023-02-23T20:34:24.157Z,-23658.24
2023-02-23T20:36:53.887Z,-23657.86
2023-02-23T20:39:23.095Z,-23657.57
2023-02-23T20:41:54.741Z,-23657.16
2023-02-23T20:44:24.287Z,-23656.81
2023-02-23T20:46:53.080Z,-23656.31
2023-02-23T20:49:22.942Z,-23655.90
2023-02-23T20:51:51.176Z,-23655.90
2023-02-23T20:54:19.646Z,-23655.99
2023-02-23T20:57:07.447Z,-23656.21
2023-02-23T20:59:36.627Z,-23656.21
2023-02-23T21:02:05.680Z,-23656.37
2023-02-23T21:04:38.646Z,-23656.34
2023-02-23T21:07:07.144Z,-23656.37
2023-02-23T21:09:40.836Z,-23656.28
2023-02-23T21:12:12.808Z,-23656.05
2023-02-23T21:14:50.117Z,-23655.83
2023-02-23T21:17:18.773Z,-23656.02
2023-02-23T21:19:46.895Z,-23656.21
2023-02-23T21:22:16.628Z,-23656.21
2023-02-23T21:24:44.785Z,-23656.43
2023-02-23T21:27:13.179Z,-23656.50
2023-02-23T21:29:42.105Z,-23656.69
2023-02-23T21:32:13.994Z,-23656.85
2023-02-23T21:34:44.003Z,-23656.79
2023-02-23T21:37:13.935Z,-23656.84
2023-02-23T21:39:42.481Z,-23656.88
2023-02-23T21:42:10.827Z,-23657.13
2023-02-23T21:44:39.546Z,-23657.26
2023-02-23T21:47:07.876Z,-23657.54
2023-02-23T21:49:38.668Z,-23657.32
2023-02-23T21:52:08.712Z,-23657.10
2023-02-23T21:54:39.576Z,-23657.16
2023-02-23T21:57:07.895Z,-23657.29
2023-02-23T21:59:36.270Z,-23657.23
2023-02-23T22:02:04.452Z,-23657.23
2023-02-23T22:04:35.768Z,-23657.42
2023-02-23T22:07:04.979Z,-23657.61
2023-02-23T22:09:35.158Z,-23657.57
2023-02-23T22:12:04.721Z,-23657.51
2023-02-23T22:14:35.180Z,-23657.42
2023-02-23T22:17:06.892Z,-23657.48
2023-02-23T22:19:37.509Z,-23657.54
2023-02-23T22:22:08.809Z,-23657.61
2023-02-23T22:24:39.297Z,-23657.86
2023-02-23T22:27:10.534Z,-23658.14
2023-02-23T22:29:39.216Z,-23658.17
2023-02-23T22:32:08.238Z,-23658.30
2023-02-23T22:34:38.047Z,-23658.49
2023-02-23T22:37:10.208Z,-23658.62
2023-02-23T22:39:41.955Z,-23658.62
2023-02-23T22:42:13.293Z,-23658.74
2023-02-23T22:44:44.794Z,-23659.00
2023-02-23T22:47:14.519Z,-23659.31
2023-02-23T22:49:44.042Z,-23659.69
2023-02-23T22:52:12.974Z,-23660.14
2023-02-23T22:54:45.850Z,-23660.29
2023-02-23T22:57:15.124Z,-23660.54
2023-02-23T22:59:55.051Z,-23660.89
2023-02-23T23:02:32.799Z,-23660.93
2023-02-23T23:05:02.001Z,-23660.93
2023-02-23T23:07:32.335Z,-23660.92
2023-02-23T23:10:05.890Z,-23660.96
2023-02-23T23:12:34.558Z,-23661.39
2023-02-23T23:15:15.052Z,-23661.75
2023-02-23T23:17:51.578Z,-23662.00
2023-02-23T23:20:23.364Z,-23662.13
2023-02-23T23:22:57.303Z,-23662.22
2023-02-23T23:25:29.783Z,-23662.22
2023-02-23T23:27:58.626Z,-23662.38
2023-02-23T23:30:29.448Z,-23662.32
2023-02-23T23:32:58.276Z,-23662.38
2023-02-23T23:35:26.702Z,-23662.60
2023-02-23T23:37:55.368Z,-23662.66
2023-02-23T23:40:24.760Z,-23662.85
2023-02-23T23:42:55.537Z,-23662.60
2023-02-23T23:45:24.493Z,-23662.54
2023-02-23T23:47:52.770Z,-23662.44
2023-02-23T23:50:27.449Z,-23662.66
2023-02-23T23:52:57.245Z,-23662.76
2023-02-23T23:55:31.207Z,-23662.95
2023-02-23T23:58:00.462Z,-23663.17
